Weather at Banner Goldfield Medical Center Heliport

Public forecast

Using degrees Fahrenheit for public forecast. Weather courtesy of forecast.io.

Closest aviation weather report (METAR) to Banner Goldfield Medical Center Heliport

Closest report is Phoenix-Mesa-Gateway Airport, 6.9 nm (12.7 km) SW. Retrieved 2021/06/21 09:35 UTC (22 minutes ago):

KIWA 210935Z AUTO 22006KT 10SM 32/14 A2983 RMK AO2 T03170135

Closest aviation forecast (TAF) to Banner Goldfield Medical Center Heliport

Closest forecast is Phoenix-Mesa-Gateway Airport, 6.9 nm (12.7 km) SW. Retrieved 2021/06/21 06:24 UTC (4 hours ago):

TAF KIWA 210520Z 2106/2206 25010KT P6SM SKC FM210800 12006KT P6SM SKC FM211700 27012KT P6SM SKC FM220300 27007KT P6SM SKC AMD LTD TO CLD VIS AND WIND TIL 211200